Time;durP1;ratioP1;P1;durP2;ratioP2;P2;SDS_P1;SDS_P2;PMS_P1;PMS_P2;Temp;Humidity;BMP_temperature;BMP_pressure;BME280_temperature;BME280_humidity;BME280_pressure;Samples;Min_cycle;Max_cycle;Signal;HPM_P1;HPM_P2
2021/08/17 00:00:06;;;;;;;84.70;79.20;;;12.40;99.50;;;;;;6196369;23;20448;-87
2021/08/17 00:02:33;;;;;;;86.07;81.57;;;12.20;99.90;;;;;;6185864;23;20414;-82
2021/08/17 00:05:00;;;;;;;90.77;86.03;;;12.20;99.90;;;;;;6196166;23;20460;-86
2021/08/17 00:07:29;;;;;;;100.47;95.27;;;12.20;99.90;;;;;;6184928;23;20444;-88
2021/08/17 00:09:55;;;;;;;103.33;96.80;;;12.10;99.90;;;;;;6195937;23;20412;-88
2021/08/17 00:12:25;;;;;;;121.07;113.67;;;12.10;99.90;;;;;;6196258;23;20486;-89
2021/08/17 00:14:52;;;;;;;112.20;105.57;;;12.10;99.90;;;;;;6186198;23;20484;-85
2021/08/17 00:17:19;;;;;;;110.93;104.20;;;12.30;99.90;;;;;;6186045;23;20499;-89
2021/08/17 00:19:46;;;;;;;111.47;105.13;;;12.20;99.90;;;;;;6195875;23;20910;-90
2021/08/17 00:22:14;;;;;;;119.93;111.77;;;12.20;99.90;;;;;;6184549;23;20973;-85
2021/08/17 00:24:43;;;;;;;122.03;113.47;;;12.20;99.90;;;;;;6186095;23;20444;-88
2021/08/17 00:27:10;;;;;;;124.57;116.60;;;12.10;99.90;;;;;;6186158;23;20393;-86
2021/08/17 00:29:36;;;;;;;126.33;118.87;;;12.10;99.90;;;;;;6185984;23;20448;-86
2021/08/17 00:32:04;;;;;;;123.93;116.87;;;12.10;99.90;;;;;;6185994;23;20399;-87
2021/08/17 00:34:31;;;;;;;134.10;125.87;;;12.20;99.90;;;;;;6186144;23;20398;-87
2021/08/17 00:36:59;;;;;;;122.97;114.87;;;12.20;99.90;;;;;;6195984;23;20398;-84
2021/08/17 00:39:26;;;;;;;125.20;117.23;;;12.10;99.90;;;;;;6194042;23;20408;-87
2021/08/17 00:41:55;;;;;;;126.07;118.30;;;12.20;99.90;;;;;;6186037;23;20462;-88
2021/08/17 00:44:23;;;;;;;129.53;121.30;;;12.20;99.90;;;;;;6195585;23;20468;-84
2021/08/17 00:46:50;;;;;;;132.90;124.07;;;12.20;99.90;;;;;;6185503;23;20959;-82
2021/08/17 00:49:19;;;;;;;135.10;127.00;;;12.20;99.90;;;;;;6185591;23;20834;-88
2021/08/17 00:51:46;;;;;;;136.67;128.67;;;12.20;99.90;;;;;;6185910;23;20419;-86
2021/08/17 00:54:13;;;;;;;141.47;132.00;;;12.30;99.90;;;;;;6184167;23;20489;-87
2021/08/17 00:56:41;;;;;;;143.47;133.87;;;12.30;99.90;;;;;;6185759;23;20409;-86
2021/08/17 00:59:11;;;;;;;135.53;126.77;;;12.30;99.90;;;;;;6195665;23;20420;-86
2021/08/17 01:01:38;;;;;;;146.40;135.97;;;12.30;99.90;;;;;;6195367;23;20412;-84
2021/08/17 01:04:05;;;;;;;140.10;130.90;;;12.30;99.90;;;;;;6185209;23;20442;-88
2021/08/17 01:06:32;;;;;;;146.40;136.20;;;12.20;99.90;;;;;;6185633;23;20479;-89
2021/08/17 01:08:59;;;;;;;149.63;139.20;;;12.20;99.90;;;;;;6183913;23;20913;-88
2021/08/17 01:11:26;;;;;;;155.20;145.50;;;12.20;99.90;;;;;;6195469;23;20442;-88
2021/08/17 01:13:53;;;;;;;156.87;145.77;;;12.30;99.90;;;;;;6185613;23;20436;-89
2021/08/17 01:16:22;;;;;;;155.60;144.03;;;12.30;99.90;;;;;;6195796;23;20406;-86
2021/08/17 01:18:49;;;;;;;158.50;147.80;;;12.40;99.90;;;;;;6195426;23;20440;-89
2021/08/17 01:21:17;;;;;;;157.00;144.60;;;12.50;99.90;;;;;;6185111;23;20808;-90
2021/08/17 01:23:44;;;;;;;155.70;145.33;;;12.40;99.90;;;;;;6194099;23;20438;-87
2021/08/17 01:26:15;;;;;;;155.63;144.57;;;12.60;99.90;;;;;;6185386;23;20407;-83
2021/08/17 01:28:42;;;;;;;151.23;139.23;;;12.40;99.90;;;;;;6195625;23;20434;-89
2021/08/17 01:31:09;;;;;;;154.13;144.20;;;12.50;99.90;;;;;;6185645;23;20433;-89
2021/08/17 01:33:37;;;;;;;149.90;139.50;;;12.40;99.90;;;;;;6195539;23;20446;-89
2021/08/17 01:36:04;;;;;;;147.07;136.83;;;12.40;99.90;;;;;;6185903;23;20410;-89
2021/08/17 01:38:31;;;;;;;148.77;137.67;;;12.40;99.90;;;;;;6183857;23;20918;-89
2021/08/17 01:40:59;;;;;;;155.83;143.77;;;12.40;99.90;;;;;;6185222;23;20410;-89
2021/08/17 01:43:27;;;;;;;150.23;139.37;;;12.30;99.90;;;;;;6185489;23;20404;-88
2021/08/17 01:46:00;;;;;;;153.50;142.10;;;12.40;99.90;;;;;;6195552;23;20461;-89
2021/08/17 01:48:30;;;;;;;153.57;142.17;;;12.30;99.90;;;;;;6195449;23;20401;-89
2021/08/17 01:50:57;;;;;;;165.33;153.50;;;12.40;99.90;;;;;;6196241;23;20518;-88
2021/08/17 01:53:25;;;;;;;157.67;146.27;;;12.30;99.90;;;;;;6186168;23;20778;-87
2021/08/17 01:55:52;;;;;;;158.13;147.40;;;12.20;99.90;;;;;;6197567;23;20403;-87
2021/08/17 01:58:19;;;;;;;164.50;153.67;;;12.20;99.90;;;;;;6197570;23;20484;-89
2021/08/17 02:00:48;;;;;;;162.67;150.50;;;12.30;99.90;;;;;;6197313;23;20410;-89
2021/08/17 02:03:15;;;;;;;168.67;156.40;;;12.30;99.90;;;;;;6187452;23;20400;-90
2021/08/17 02:05:42;;;;;;;162.83;151.37;;;12.20;99.90;;;;;;6196843;23;20749;-85
2021/08/17 02:08:09;;;;;;;168.77;156.40;;;12.20;99.90;;;;;;6195958;23;20884;-82
2021/08/17 02:10:37;;;;;;;168.07;157.17;;;12.20;99.90;;;;;;6186989;23;20407;-82
2021/08/17 02:13:05;;;;;;;175.43;163.40;;;12.20;99.90;;;;;;6197204;23;20462;-89
2021/08/17 02:15:32;;;;;;;178.30;167.13;;;12.20;99.90;;;;;;6187358;23;20906;-88
2021/08/17 02:18:01;;;;;;;171.37;159.67;;;12.20;99.90;;;;;;6187246;23;20447;-88
2021/08/17 02:20:28;;;;;;;169.80;157.47;;;12.20;99.90;;;;;;6186939;23;20821;-89
2021/08/17 02:22:56;;;;;;;173.00;159.67;;;12.20;99.90;;;;;;6186265;23;20428;-88
2021/08/17 02:25:23;;;;;;;172.93;161.03;;;12.10;99.90;;;;;;6186850;23;20461;-89
2021/08/17 02:27:50;;;;;;;174.23;161.47;;;12.10;99.90;;;;;;6186822;23;20414;-88
2021/08/17 02:30:16;;;;;;;175.47;163.47;;;12.10;99.90;;;;;;6187112;23;20412;-89
2021/08/17 02:32:43;;;;;;;175.87;164.20;;;12.20;99.90;;;;;;6186698;23;20434;-89
2021/08/17 02:35:12;;;;;;;174.97;162.37;;;12.10;99.90;;;;;;6196739;23;20813;-89
2021/08/17 02:37:39;;;;;;;173.03;161.50;;;12.10;99.90;;;;;;6185697;23;20390;-89
2021/08/17 02:40:07;;;;;;;174.77;161.03;;;12.10;99.90;;;;;;6186633;23;20394;-88
2021/08/17 02:42:34;;;;;;;175.50;163.50;;;12.10;99.90;;;;;;6186991;23;20435;-85
2021/08/17 02:45:02;;;;;;;172.13;160.10;;;12.10;99.90;;;;;;6196879;23;20479;-87
2021/08/17 02:47:30;;;;;;;179.73;167.03;;;12.00;99.90;;;;;;6186510;23;20483;-87
2021/08/17 02:49:58;;;;;;;186.37;173.57;;;12.10;99.90;;;;;;6196936;23;20802;-87
2021/08/17 02:52:26;;;;;;;179.13;167.70;;;12.10;99.90;;;;;;6185623;23;20435;-84
2021/08/17 02:54:53;;;;;;;181.20;167.90;;;12.00;99.90;;;;;;6186962;23;20957;-86
2021/08/17 02:57:23;;;;;;;178.33;165.80;;;12.00;99.90;;;;;;6186989;23;20439;-90
2021/08/17 02:59:50;;;;;;;187.40;173.70;;;12.00;99.90;;;;;;6196791;23;20440;-89
2021/08/17 03:02:16;;;;;;;190.10;176.47;;;12.00;99.90;;;;;;6185818;23;20407;-89
2021/08/17 03:04:43;;;;;;;201.00;187.57;;;12.00;99.90;;;;;;6186757;23;20467;-90
2021/08/17 03:07:12;;;;;;;188.60;175.57;;;12.00;99.90;;;;;;6185418;23;20397;-88
2021/08/17 03:09:41;;;;;;;191.20;177.37;;;12.10;99.90;;;;;;6186868;23;20397;-88
2021/08/17 03:12:09;;;;;;;199.50;185.93;;;12.10;99.90;;;;;;6186437;23;20407;-89
2021/08/17 03:14:36;;;;;;;189.10;177.40;;;12.10;99.90;;;;;;6186290;23;20485;-89
2021/08/17 03:17:03;;;;;;;203.00;188.77;;;12.10;99.90;;;;;;6186695;23;20433;-88
2021/08/17 03:19:30;;;;;;;191.63;179.00;;;12.10;99.90;;;;;;6159310;23;20947;-85
2021/08/17 03:21:56;;;;;;;194.87;181.17;;;12.20;99.90;;;;;;6166900;23;20456;-84
2021/08/17 03:24:23;;;;;;;202.47;188.33;;;12.10;99.90;;;;;;6165466;23;20472;-90
2021/08/17 03:26:51;;;;;;;191.30;177.57;;;12.10;99.90;;;;;;6166845;23;20402;-86
2021/08/17 03:29:20;;;;;;;202.37;189.17;;;12.00;99.90;;;;;;6166675;23;20465;-86
2021/08/17 03:31:46;;;;;;;190.57;177.20;;;12.00;99.90;;;;;;6166445;23;20725;-86
2021/08/17 03:34:16;;;;;;;189.60;176.80;;;12.10;99.90;;;;;;6166673;23;20735;-83
2021/08/17 03:36:43;;;;;;;193.57;179.70;;;11.90;99.90;;;;;;6156876;23;20458;-87
2021/08/17 03:39:10;;;;;;;190.43;178.20;;;11.90;99.90;;;;;;6164826;23;20799;-88
2021/08/17 03:41:37;;;;;;;185.13;171.93;;;11.90;99.90;;;;;;6156597;23;20490;-89
2021/08/17 03:44:05;;;;;;;188.93;176.60;;;11.90;99.90;;;;;;6156638;23;20398;-87
2021/08/17 03:46:32;;;;;;;200.77;185.97;;;12.00;99.90;;;;;;6156780;23;20405;-84
2021/08/17 03:48:59;;;;;;;200.47;186.37;;;12.10;99.90;;;;;;6156544;23;20480;-89
2021/08/17 03:51:28;;;;;;;201.63;188.93;;;12.00;99.90;;;;;;6156664;23;20406;-88
2021/08/17 03:53:55;;;;;;;204.90;190.37;;;12.00;99.90;;;;;;6155403;23;20419;-88
2021/08/17 03:56:22;;;;;;;198.07;183.97;;;12.10;99.90;;;;;;6156513;23;20443;-88
2021/08/17 03:58:49;;;;;;;196.93;182.73;;;12.10;99.90;;;;;;6156678;23;20402;-87
2021/08/17 04:01:17;;;;;;;198.50;183.10;;;12.10;99.90;;;;;;6156660;23;20430;-86
2021/08/17 04:03:45;;;;;;;191.80;177.77;;;12.10;99.90;;;;;;6156422;23;20405;-80
2021/08/17 04:06:12;;;;;;;186.43;174.30;;;12.10;99.90;;;;;;6166370;23;20437;-84
2021/08/17 04:08:39;;;;;;;177.13;164.70;;;12.10;99.90;;;;;;6155183;23;20431;-86
2021/08/17 04:11:05;;;;;;;182.07;170.07;;;12.10;99.90;;;;;;6156030;23;20446;-89
2021/08/17 04:13:32;;;;;;;183.57;170.90;;;12.10;99.90;;;;;;6156243;23;20397;-87
2021/08/17 04:15:59;;;;;;;178.57;166.30;;;12.10;99.90;;;;;;6156484;23;20489;-85
2021/08/17 04:18:30;;;;;;;178.20;165.60;;;12.20;99.90;;;;;;6156414;23;20973;-87
2021/08/17 04:20:57;;;;;;;177.50;164.60;;;12.30;99.90;;;;;;6173723;23;20816;-88
2021/08/17 04:23:23;;;;;;;169.20;156.63;;;12.40;99.90;;;;;;6184231;23;20399;-86
2021/08/17 04:25:50;;;;;;;166.70;154.57;;;12.30;99.90;;;;;;6186050;23;20760;-88
2021/08/17 04:28:17;;;;;;;166.10;153.83;;;12.40;99.90;;;;;;6186034;23;20403;-89
2021/08/17 04:30:44;;;;;;;157.47;146.97;;;12.40;99.90;;;;;;6195905;23;20795;-84
2021/08/17 04:33:11;;;;;;;155.03;143.63;;;12.50;99.90;;;;;;6186123;23;20523;-84
2021/08/17 04:35:39;;;;;;;151.47;140.80;;;12.50;99.90;;;;;;6185998;23;20404;-87
2021/08/17 04:38:06;;;;;;;149.60;137.33;;;12.50;99.90;;;;;;6194239;23;20740;-86
2021/08/17 04:40:33;;;;;;;144.30;134.63;;;12.50;99.90;;;;;;6185889;23;20408;-87
2021/08/17 04:43:00;;;;;;;139.53;130.30;;;12.50;99.90;;;;;;6195955;23;20404;-86
2021/08/17 04:45:27;;;;;;;134.27;125.63;;;12.50;99.90;;;;;;6185755;23;21007;-86
2021/08/17 04:47:54;;;;;;;130.83;121.83;;;12.50;99.90;;;;;;6185425;23;20441;-85
2021/08/17 04:50:22;;;;;;;131.67;121.63;;;12.50;99.90;;;;;;6195627;23;20409;-87
2021/08/17 04:52:51;;;;;;;133.03;123.27;;;12.50;99.90;;;;;;6184087;23;20464;-89
2021/08/17 04:55:18;;;;;;;129.40;120.67;;;12.50;99.90;;;;;;6186030;23;20462;-89
2021/08/17 04:57:52;;;;;;;128.10;119.10;;;12.50;99.90;;;;;;6185900;23;20434;-87
2021/08/17 05:00:20;;;;;;;126.83;118.07;;;12.50;99.90;;;;;;6185885;23;20399;-78
2021/08/17 05:02:48;;;;;;;129.07;120.70;;;12.40;99.90;;;;;;6185887;23;20486;-88
2021/08/17 05:05:15;;;;;;;129.27;121.10;;;12.50;99.90;;;;;;6195081;23;20738;-89
2021/08/17 05:07:43;;;;;;;131.03;121.37;;;12.50;99.90;;;;;;6194046;23;20923;-82
2021/08/17 05:10:14;;;;;;;124.50;115.67;;;12.50;99.90;;;;;;6185683;23;20499;-84
2021/08/17 05:12:41;;;;;;;129.50;120.00;;;12.50;99.90;;;;;;6185368;23;21009;-87
2021/08/17 05:15:11;;;;;;;127.80;119.00;;;12.60;99.90;;;;;;6185710;23;20407;-84
2021/08/17 05:17:39;;;;;;;129.97;120.83;;;12.70;99.90;;;;;;6195537;23;20480;-85
2021/08/17 05:20:08;;;;;;;133.60;124.20;;;12.80;99.90;;;;;;6195206;23;20940;-87
2021/08/17 05:22:37;;;;;;;128.37;119.77;;;12.80;99.90;;;;;;6194384;23;20408;-82
2021/08/17 05:25:07;;;;;;;129.13;119.90;;;13.00;99.90;;;;;;6195386;23;20802;-89
2021/08/17 05:27:35;;;;;;;120.73;111.33;;;13.00;99.90;;;;;;6185644;23;20927;-84
2021/08/17 05:30:02;;;;;;;111.40;103.30;;;13.10;99.90;;;;;;6195675;23;20424;-87
2021/08/17 05:32:29;;;;;;;100.77;92.80;;;13.10;99.90;;;;;;6196294;23;20470;-84
2021/08/17 05:34:56;;;;;;;97.40;89.47;;;13.10;99.90;;;;;;6195748;23;20424;-85
2021/08/17 05:37:23;;;;;;;91.63;85.17;;;13.20;99.90;;;;;;6195074;23;20974;-90
2021/08/17 05:39:50;;;;;;;91.43;83.37;;;13.30;99.90;;;;;;6187374;23;20880;-88
2021/08/17 05:42:17;;;;;;;90.43;82.73;;;13.40;99.90;;;;;;6195892;23;20931;-87
2021/08/17 05:44:55;;;;;;;76.43;70.43;;;13.40;99.90;;;;;;6185997;23;20404;-93
2021/08/17 05:47:22;;;;;;;71.67;65.60;;;13.60;99.90;;;;;;6190770;23;20428;-88
2021/08/17 05:49:50;;;;;;;70.70;64.70;;;13.60;99.90;;;;;;6196996;23;20736;-92
2021/08/17 05:52:24;;;;;;;66.00;60.33;;;13.70;99.90;;;;;;6195116;23;20432;-91
2021/08/17 05:54:54;;;;;;;59.57;54.37;;;13.80;99.90;;;;;;6195892;23;20702;-88
2021/08/17 05:57:23;;;;;;;56.90;51.40;;;13.80;99.90;;;;;;6195835;23;20427;-88
2021/08/17 05:59:56;;;;;;;51.33;45.80;;;14.00;99.30;;;;;;6195907;23;20408;-88
2021/08/17 06:02:23;;;;;;;54.10;48.30;;;13.90;98.10;;;;;;6195145;23;20737;-88
2021/08/17 06:05:21;;;;;;;42.07;37.77;;;14.00;97.20;;;;;;6185679;23;20412;-88
2021/08/17 06:07:49;;;;;;;44.47;37.67;;;14.20;96.80;;;;;;6130034;23;20413;-90
2021/08/17 06:10:19;;;;;;;46.83;29.20;;;14.40;95.20;;;;;;6186209;23;20881;-88
2021/08/17 06:12:50;;;;;;;34.10;19.37;;;14.80;93.00;;;;;;6195786;23;20463;-86
2021/08/17 06:18:04;;;;;;;41.07;17.00;;;15.00;86.50;;;;;;6146441;23;20416;-87
2021/08/17 06:20:42;;;;;;;37.40;14.90;;;15.30;81.80;;;;;;6185388;23;20512;-86
2021/08/17 06:23:12;;;;;;;40.20;15.17;;;15.40;81.90;;;;;;6194269;23;20415;-83
2021/08/17 06:25:39;;;;;;;34.13;16.20;;;15.30;81.70;;;;;;6195002;23;20443;-84
2021/08/17 06:28:14;;;;;;;33.13;15.50;;;15.40;81.90;;;;;;6185228;23;20409;-85
2021/08/17 06:30:54;;;;;;;38.67;18.10;;;15.50;81.90;;;;;;6185313;23;20405;-86
2021/08/17 06:33:34;;;;;;;35.90;15.37;;;15.40;79.00;;;;;;6195409;23;20417;-86
2021/08/17 06:36:14;;;;;;;36.77;16.20;;;15.50;79.20;;;;;;6195366;23;20888;-84
2021/08/17 06:38:58;;;;;;;36.17;15.93;;;15.80;77.30;;;;;;6185516;23;20397;-88
2021/08/17 06:41:32;;;;;;;33.30;14.13;;;16.10;75.30;;;;;;6187313;23;20393;-89
2021/08/17 06:44:04;;;;;;;44.17;14.27;;;16.30;71.50;;;;;;6197160;23;20413;-85
2021/08/17 06:46:32;;;;;;;36.33;14.87;;;16.50;70.00;;;;;;6196804;23;20527;-86
2021/08/17 06:51:50;;;;;;;30.97;13.33;;;16.80;67.20;;;;;;6180564;23;20455;-86
2021/08/17 07:02:58;;;;;;;30.13;12.60;;;16.60;64.70;;;;;;6184082;23;20408;-86
2021/08/17 07:05:30;;;;;;;29.37;13.20;;;16.70;65.30;;;;;;6186260;23;21003;-85
2021/08/17 07:08:11;;;;;;;36.73;13.77;;;16.60;65.00;;;;;;6185142;23;20484;-85
2021/08/17 07:10:47;;;;;;;32.30;13.13;;;16.80;65.90;;;;;;6196697;23;20409;-88
2021/08/17 07:23:12;;;;;;;40.43;13.17;;;16.90;60.70;;;;;;6065054;23;20417;-86
2021/08/17 07:29:17;;;;;;;32.93;13.90;;;17.10;59.20;;;;;;6046735;23;20435;-88
2021/08/17 07:31:51;;;;;;;36.23;15.20;;;17.50;59.60;;;;;;6076387;23;20518;-87
2021/08/17 07:34:44;;;;;;;29.67;13.03;;;17.30;58.80;;;;;;6076243;23;20416;-86
2021/08/17 07:37:34;;;;;;;34.37;14.77;;;16.90;58.30;;;;;;6066414;23;20468;-87
2021/08/17 07:40:26;;;;;;;31.77;14.37;;;16.60;60.00;;;;;;6119065;23;20417;-87
2021/08/17 07:42:58;;;;;;;34.43;14.83;;;16.40;60.60;;;;;;6186698;23;20455;-86
2021/08/17 07:45:31;;;;;;;30.93;13.07;;;16.30;62.90;;;;;;6196502;23;20473;-86
2021/08/17 07:48:19;;;;;;;27.43;12.47;;;16.20;60.50;;;;;;6195684;23;20433;-87
2021/08/17 07:53:54;;;;;;;36.57;13.47;;;16.60;63.10;;;;;;6145137;23;20724;-84
2021/08/17 07:59:06;;;;;;;27.17;12.67;;;17.30;59.00;;;;;;6156401;23;20402;-86
2021/08/17 08:01:38;;;;;;;31.60;13.13;;;17.40;58.40;;;;;;6166447;23;20920;-86
2021/08/17 08:04:16;;;;;;;28.53;11.90;;;17.40;56.30;;;;;;6165808;23;20473;-86
2021/08/17 08:06:58;;;;;;;27.97;12.87;;;17.40;56.80;;;;;;6166104;23;20492;-85
2021/08/17 08:09:30;;;;;;;25.60;11.10;;;17.60;55.70;;;;;;6164772;23;20417;-87
2021/08/17 08:12:07;;;;;;;24.90;11.53;;;17.90;53.50;;;;;;6165857;23;20414;-85
2021/08/17 08:14:37;;;;;;;38.17;12.00;;;18.00;52.80;;;;;;6165832;23;20426;-87
2021/08/17 08:17:28;;;;;;;23.00;11.67;;;18.40;50.80;;;;;;6166021;23;20792;-88
2021/08/17 08:20:11;;;;;;;21.00;11.50;;;18.20;48.80;;;;;;6165795;23;20890;-87
2021/08/17 08:22:44;;;;;;;31.40;12.30;;;18.40;48.90;;;;;;6164564;23;20418;-88
2021/08/17 08:25:14;;;;;;;25.50;10.10;;;18.60;50.30;;;;;;6166062;23;20501;-88
2021/08/17 08:27:51;;;;;;;20.93;10.43;;;18.60;47.40;;;;;;6166007;23;20430;-88
2021/08/17 08:30:25;;;;;;;22.47;10.87;;;18.50;48.20;;;;;;6166096;23;20457;-88
2021/08/17 08:32:56;;;;;;;24.67;10.40;;;18.80;48.60;;;;;;6166145;23;20405;-88
2021/08/17 08:38:14;;;;;;;22.87;9.60;;;18.80;46.60;;;;;;6153866;23;20421;-87
2021/08/17 08:40:52;;;;;;;22.53;11.10;;;18.30;44.50;;;;;;6165827;23;20420;-87
2021/08/17 08:43:49;;;;;;;20.43;10.23;;;18.70;44.40;;;;;;6165934;23;20738;-88
2021/08/17 08:46:18;;;;;;;22.30;9.40;;;19.40;44.60;;;;;;6165565;23;20984;-86
2021/08/17 08:49:11;;;;;;;22.73;9.93;;;19.80;42.80;;;;;;6156078;23;20410;-86
2021/08/17 08:51:45;;;;;;;25.87;10.70;;;19.50;40.00;;;;;;6165650;23;20413;-88
2021/08/17 08:56:59;;;;;;;16.30;8.87;;;19.40;40.20;;;;;;6150499;23;20907;-86
2021/08/17 08:59:30;;;;;;;24.47;10.17;;;20.10;39.60;;;;;;6165881;23;20420;-86
2021/08/17 09:02:37;;;;;;;24.73;9.77;;;20.60;38.30;;;;;;6165861;23;20480;-87
2021/08/17 09:05:23;;;;;;;23.30;8.93;;;20.40;35.70;;;;;;6165763;23;20416;-86
2021/08/17 09:07:56;;;;;;;19.40;8.67;;;20.10;35.40;;;;;;6163764;23;20441;-87
2021/08/17 09:10:41;;;;;;;22.53;10.47;;;20.30;34.20;;;;;;6155711;23;20421;-87
2021/08/17 09:13:33;;;;;;;23.63;9.50;;;20.10;34.40;;;;;;6155685;23;20413;-85
2021/08/17 09:16:23;;;;;;;24.87;10.37;;;20.20;36.40;;;;;;6165820;23;20862;-88
2021/08/17 09:19:00;;;;;;;20.73;9.63;;;19.70;34.20;;;;;;6155908;23;20497;-86
2021/08/17 09:21:43;;;;;;;19.00;9.33;;;19.30;34.60;;;;;;6165358;23;20484;-88
2021/08/17 09:27:13;;;;;;;30.47;10.30;;;19.10;35.40;;;;;;6152846;23;20952;-88
2021/08/17 09:30:07;;;;;;;21.27;10.00;;;19.00;36.40;;;;;;6155220;23;20418;-87
2021/08/17 09:32:50;;;;;;;21.17;10.27;;;19.20;36.90;;;;;;6165584;23;20413;-86
2021/08/17 09:36:14;;;;;;;;;;;;;;;;;;;;;
2021/08/17 09:38:46;;;;;;;18.63;10.10;;;18.90;35.20;;;;;;6163859;23;20394;-90
2021/08/17 09:41:29;;;;;;;23.40;11.80;;;18.80;37.80;;;;;;6164345;23;20889;-87
2021/08/17 09:44:21;;;;;;;27.67;10.73;;;19.00;37.20;;;;;;6155381;23;20166;-87
2021/08/17 09:46:55;;;;;;;22.30;9.80;;;19.20;38.10;;;;;;6155566;23;20465;-86
2021/08/17 09:49:29;;;;;;;26.03;11.67;;;19.10;37.30;;;;;;6165186;23;20418;-87
2021/08/17 09:52:21;;;;;;;26.97;11.00;;;18.50;35.10;;;;;;6165201;23;20472;-89
2021/08/17 09:54:59;;;;;;;27.70;11.97;;;18.50;35.20;;;;;;6165668;23;20873;-89
2021/08/17 09:57:34;;;;;;;27.70;10.70;;;18.60;37.90;;;;;;6165467;23;20418;-87
2021/08/17 10:00:04;;;;;;;22.47;10.37;;;18.70;36.50;;;;;;6154992;23;20416;-83
2021/08/17 10:02:33;;;;;;;24.63;11.17;;;18.40;34.60;;;;;;6165586;23;20408;-88
2021/08/17 10:05:10;;;;;;;23.93;12.10;;;18.30;36.10;;;;;;6165167;23;20484;-86
2021/08/17 10:07:44;;;;;;;25.20;10.97;;;18.10;37.80;;;;;;6164011;23;20434;-88
2021/08/17 10:10:13;;;;;;;21.80;9.60;;;18.00;37.30;;;;;;6155645;23;20480;-87
2021/08/17 10:12:40;;;;;;;25.40;10.20;;;18.00;37.10;;;;;;6156867;23;20444;-88
2021/08/17 10:15:10;;;;;;;22.27;10.73;;;18.10;36.10;;;;;;6157461;23;20485;-88
2021/08/17 10:17:39;;;;;;;19.27;11.63;;;18.10;35.40;;;;;;6167341;23;20497;-88
2021/08/17 10:20:38;;;;;;;18.20;9.30;;;18.30;36.80;;;;;;6166659;23;20413;-87
2021/08/17 10:23:07;;;;;;;21.00;9.10;;;18.20;35.70;;;;;;6165898;23;20457;-87
2021/08/17 10:25:47;;;;;;;20.07;9.57;;;18.20;36.10;;;;;;6166912;23;20408;-88
2021/08/17 10:28:26;;;;;;;18.30;9.27;;;18.10;35.10;;;;;;6157037;23;20434;-86
2021/08/17 10:30:54;;;;;;;19.90;8.77;;;18.00;35.30;;;;;;6167293;23;20784;-88
2021/08/17 10:33:39;;;;;;;19.37;9.10;;;18.10;37.60;;;;;;6157427;23;20729;-89
2021/08/17 10:36:32;;;;;;;19.53;9.37;;;18.20;35.50;;;;;;6156229;23;20433;-86
2021/08/17 10:38:59;;;;;;;23.00;9.40;;;18.00;36.10;;;;;;6165324;23;20537;-87
2021/08/17 10:41:45;;;;;;;21.10;9.23;;;18.20;36.50;;;;;;6166934;23;20398;-88
2021/08/17 10:44:35;;;;;;;25.97;10.60;;;18.40;35.90;;;;;;6166682;23;20503;-82
2021/08/17 10:47:43;;;;;;;25.37;11.27;;;18.40;35.50;;;;;;6166286;23;20429;-86
2021/08/17 10:50:38;;;;;;;23.03;9.80;;;18.30;35.30;;;;;;6135887;23;20418;-88
2021/08/17 10:53:38;;;;;;;19.80;9.83;;;18.40;36.10;;;;;;6165958;23;20732;-89
2021/08/17 10:59:54;;;;;;;19.00;9.57;;;18.10;33.60;;;;;;6097117;23;20832;-88
2021/08/17 11:06:02;;;;;;;;;;;;;;;;;;;;;
2021/08/17 11:08:51;;;;;;;16.67;8.30;;;17.60;35.20;;;;;;6129216;23;20441;-88
2021/08/17 11:11:29;;;;;;;17.03;7.70;;;17.40;35.20;;;;;;6166406;23;20900;-89
2021/08/17 11:14:18;;;;;;;22.90;9.40;;;17.40;36.10;;;;;;6166460;23;20413;-87
2021/08/17 11:16:56;;;;;;;16.13;8.60;;;17.20;38.30;;;;;;6156650;23;20412;-88
2021/08/17 11:19:35;;;;;;;16.93;8.63;;;17.00;35.60;;;;;;6165533;23;20410;-86
2021/08/17 11:22:18;;;;;;;14.53;7.80;;;16.90;35.90;;;;;;6156053;23;20540;-87
2021/08/17 11:24:52;;;;;;;17.73;8.20;;;16.80;38.10;;;;;;6165807;23;20488;-88
2021/08/17 11:27:23;;;;;;;17.20;8.17;;;16.80;38.10;;;;;;6166275;23;20432;-87
2021/08/17 11:30:05;;;;;;;17.20;8.13;;;16.70;39.30;;;;;;6166280;23;20897;-87
2021/08/17 11:32:56;;;;;;;23.30;10.17;;;16.60;37.10;;;;;;6166391;23;20402;-87
2021/08/17 11:35:39;;;;;;;16.57;7.97;;;16.60;38.00;;;;;;6166474;23;20420;-87
2021/08/17 11:38:09;;;;;;;17.80;7.33;;;16.50;37.90;;;;;;6165167;23;20410;-87
2021/08/17 11:40:42;;;;;;;23.10;7.77;;;16.50;38.00;;;;;;6155566;23;20426;-84
2021/08/17 11:43:23;;;;;;;17.83;8.43;;;16.50;38.70;;;;;;6166587;23;20738;-87
2021/08/17 11:48:44;;;;;;;16.00;9.17;;;16.40;38.10;;;;;;6153906;23;20449;-84
2021/08/17 11:51:16;;;;;;;20.03;7.37;;;16.60;39.00;;;;;;6156253;23;20413;-86
2021/08/17 11:53:43;;;;;;;18.30;7.90;;;16.70;38.00;;;;;;6164921;23;20410;-89
2021/08/17 11:56:30;;;;;;;17.33;7.97;;;16.80;37.40;;;;;;6165946;23;20421;-87
2021/08/17 11:59:03;;;;;;;15.80;7.47;;;16.80;37.60;;;;;;6166291;23;20802;-88
2021/08/17 12:01:42;;;;;;;19.57;9.17;;;16.80;36.10;;;;;;6165828;23;20417;-89
2021/08/17 12:04:51;;;;;;;15.93;8.90;;;16.80;37.30;;;;;;6156388;23;20413;-87
2021/08/17 12:07:48;;;;;;;16.30;8.80;;;16.80;35.20;;;;;;6154096;23;20485;-88
2021/08/17 12:10:48;;;;;;;18.70;8.90;;;16.70;36.00;;;;;;6166505;23;20457;-86
2021/08/17 12:13:42;;;;;;;14.73;7.30;;;16.60;37.20;;;;;;6166066;23;20406;-87
2021/08/17 12:16:26;;;;;;;17.13;7.33;;;16.70;37.30;;;;;;6165977;23;20873;-88
2021/08/17 12:19:00;;;;;;;13.70;7.67;;;16.70;37.90;;;;;;6165862;23;20472;-88
2021/08/17 12:21:44;;;;;;;15.03;7.80;;;16.80;37.90;;;;;;6165972;23;20453;-88
2021/08/17 12:24:36;;;;;;;;;;;;;;;;;;;;;
2021/08/17 12:27:24;;;;;;;17.03;8.97;;;16.90;37.00;;;;;;6166370;23;20501;-88
2021/08/17 12:30:03;;;;;;;;;;;;;;;;;;;;;
2021/08/17 12:32:33;;;;;;;17.30;7.80;;;16.70;41.30;;;;;;6155528;23;20409;-85
2021/08/17 12:35:24;;;;;;;20.20;10.30;;;16.70;44.40;;;;;;6155737;23;20406;-85
2021/08/17 12:38:21;;;;;;;15.63;8.20;;;16.50;45.80;;;;;;6164302;23;20476;-85
2021/08/17 12:40:51;;;;;;;16.20;8.17;;;16.50;47.20;;;;;;6166040;23;20747;-86
2021/08/17 12:43:21;;;;;;;17.30;8.13;;;16.40;46.90;;;;;;6166213;23;20406;-87
2021/08/17 12:45:51;;;;;;;21.27;9.33;;;16.40;45.70;;;;;;6156064;23;20432;-85
2021/08/17 12:48:19;;;;;;;17.50;7.70;;;16.40;46.00;;;;;;6165783;23;20544;-88
2021/08/17 12:50:51;;;;;;;20.10;9.17;;;16.40;48.60;;;;;;6166050;23;20901;-87
2021/08/17 12:53:24;;;;;;;17.10;7.87;;;16.60;46.30;;;;;;6164500;23;20440;-86
2021/08/17 12:55:55;;;;;;;14.90;7.87;;;16.60;42.80;;;;;;6165851;23;20505;-86
2021/08/17 12:58:23;;;;;;;18.80;7.07;;;16.80;43.70;;;;;;6156361;23;20403;-88
2021/08/17 13:00:53;;;;;;;16.40;7.93;;;16.80;41.40;;;;;;6165768;23;20468;-88
2021/08/17 13:03:31;;;;;;;17.40;8.17;;;16.80;40.60;;;;;;6165400;23;20413;-88
2021/08/17 13:06:10;;;;;;;17.07;6.50;;;16.80;41.40;;;;;;6165902;23;20409;-90
2021/08/17 13:08:41;;;;;;;17.33;7.63;;;16.70;41.10;;;;;;6164536;23;20441;-89
2021/08/17 13:11:10;;;;;;;19.73;6.97;;;16.50;42.60;;;;;;6165738;23;20480;-90
2021/08/17 13:13:40;;;;;;;14.07;7.30;;;16.40;43.70;;;;;;6165715;23;20420;-89
2021/08/17 13:16:20;;;;;;;15.03;6.17;;;16.00;55.60;;;;;;6165779;23;20418;-88
2021/08/17 13:18:50;;;;;;;18.23;7.47;;;15.40;99.90;;;;;;6165494;23;20448;-91
2021/08/17 13:21:22;;;;;;;12.60;6.90;;;15.30;73.90;;;;;;6165108;23;20442;-89
2021/08/17 13:24:00;;;;;;;20.43;6.30;;;15.30;66.60;;;;;;6164186;23;20441;-92
2021/08/17 13:26:34;;;;;;;14.50;6.70;;;15.30;60.40;;;;;;6165630;23;20426;-89
2021/08/17 13:29:07;;;;;;;15.43;8.47;;;15.40;60.30;;;;;;6165325;23;20519;-90
2021/08/17 13:31:42;;;;;;;26.33;7.63;;;15.40;62.30;;;;;;6165301;23;20940;-90
2021/08/17 13:34:21;;;;;;;14.63;7.47;;;15.40;59.70;;;;;;6165492;23;20433;-92
2021/08/17 13:37:11;;;;;;;13.53;7.73;;;15.40;63.00;;;;;;6165634;23;20413;-91
2021/08/17 13:39:43;;;;;;;21.63;9.77;;;15.20;75.80;;;;;;6166629;23;20398;-93
2021/08/17 13:42:16;;;;;;;18.80;7.90;;;15.30;81.80;;;;;;6155676;23;20433;-86
2021/08/17 13:45:25;;;;;;;15.63;7.53;;;15.40;70.90;;;;;;6165234;23;20769;-86
2021/08/17 13:47:57;;;;;;;12.57;8.77;;;15.60;69.00;;;;;;6166592;23;20511;-87